CheckWX is a tool to help pilots better visualize weather data.  It is not intended as a substitute for an official pre-flight weather briefing.

08:16:28 UTC

KLFK METAR
Angelina County Airport
Lufkin, Texas, USA
Current

23 mins ago

KLFK 220753Z AUTO 05005KT 6SM BR OVC004 07/07 A3001 RMK AO2 SLP160 T00720072
Observed
Feb-22 @ 07:53 UTC
Wind
  • 050° at 5 KTS
Visibility
6 SM
Flight Rules
LIFR
Conditions
Mist
Cloud Levels
  • Overcast at 400' AGL
Temperature
C / 45°F
Dewpoint
C / 45°F
Humidity
100%
Altimeter
30.01" Hg
Pressure
1016 hPa
Previous

1 hour ago

KLFK 220653Z AUTO 05004KT 5SM BR OVC004 07/07 A3001 RMK AO2 SLP163 T00720072
Observed
Feb-22 @ 06:53 UTC
Wind
  • 050° at 4 KTS
Visibility
5 SM
Flight Rules
LIFR
Conditions
Mist
Cloud Levels
  • Overcast at 400' AGL
Temperature
C / 45°F
Dewpoint
C / 45°F
Humidity
100%
Altimeter
30.01" Hg
Pressure
1016.3 hPa
Previous

2 hours ago

KLFK 220619Z AUTO 04004KT 3SM BR OVC004 07/07 A3000 RMK AO2 T00720072
Observed
Feb-22 @ 06:19 UTC
Wind
  • 040° at 4 KTS
Visibility
3 SM
Flight Rules
LIFR
Conditions
Mist
Cloud Levels
  • Overcast at 400' AGL
Temperature
C / 45°F
Dewpoint
C / 45°F
Humidity
100%
Altimeter
30" Hg
Pressure
1015.92 hPa